Strona główna
METAR-TAF:

METAR-TAF

Lotnisko :

Port lotniczy Niamey

Niamey, Niger

Szerokość geograficzna: 13-29N, Długość geograficzna: 002-10E, wysokość: 223 m

Aktualna obserwacja pogody

Raport powstał 5 godziny i 30 minut temu, godzina 16:00 UTC
Wiatr 6 kt od wschód, zmienny między wschodnio-północny wschód i wschodnio-południowy wschód
Temperatura 33°C
Wilgotność 10%
Ciśnienie 1014 hPa
Widzialność 10 km lub więcej
Brak chmur poniżej 1500 m i brak chmur cumulonimbus

METAR: DRRN 091600Z 09006KT 060V120 CAVOK 33/M03 Q1014 NOSIG

czas: 22:30 (21:30 UTC)

Prognoza

Raport powstał 4 godziny i 30 minut temu, godzina 17:00 UTC
Prognoza ważna od 09 godzina 18 UTC do 10 godzina 24 UTC
Wiatr 8 kt od wschodnio-północny wschód
Widzialność: 8000 m
Przejściowo
od 10 godzina 06 UTC do 10 godzina 08 UTC
Widzialność: 4800 m
pył
Przejściowo
od 10 godzina 08 UTC do 10 godzina 12 UTC
Wiatr 20 kt od wschód
Widzialność: 3800 m
zawieja pyłowa

TAF: DRRN 091700Z 0918/1024 06008KT 8000 NSC TEMPO 1006/1008 4800 DU TEMPO 1008/1012 10020KT 3800 BLDU

Obserwacja i prognoza pogody dla ponad 4000 lotnisk (raport METAR i TAF).

Dostępne stacje oznaczono żółtymi i czerwonymi punktami na mapie.

Najedź kursorem aby zobaczyć nazwę stacji.

Kliknij aby zobaczyć obserwacje i prognozy pogody.

Aby zmienić mapę: kliknij na zielony przycisk z czarnym krzyżykiem, aby powiększyć; na zielony przycisk z myślnikiem, aby pomniejszyć; na zielone strzałki, aby przejść do map sąsiednich.


METAR-TAF: